createdAt,value
2022-11-25T00:01:21.287Z,4.11
2022-11-25T00:03:47.902Z,4.16
2022-11-25T00:06:24.699Z,4.10
2022-11-25T00:08:53.969Z,4.18
2022-11-25T00:11:20.438Z,4.41
2022-11-25T00:13:47.186Z,4.33
2022-11-25T00:16:15.481Z,4.31
2022-11-25T00:18:49.376Z,4.23
2022-11-25T00:21:17.675Z,4.14
2022-11-25T00:23:44.194Z,4.24
2022-11-25T00:26:15.114Z,4.30
2022-11-25T00:28:42.569Z,4.36
2022-11-25T00:31:22.155Z,4.38
2022-11-25T00:33:48.922Z,4.38
2022-11-25T00:36:17.462Z,4.44
2022-11-25T00:38:45.238Z,4.41
2022-11-25T00:41:30.247Z,4.47
2022-11-25T00:44:15.388Z,4.59
2022-11-25T00:46:42.047Z,4.49
2022-11-25T00:49:08.544Z,4.61
2022-11-25T00:51:35.012Z,4.64
2022-11-25T00:54:01.468Z,4.52
2022-11-25T00:56:27.979Z,4.55
2022-11-25T00:58:54.423Z,4.45
2022-11-25T01:01:21.032Z,4.45
2022-11-25T01:03:51.197Z,4.46
2022-11-25T01:06:17.689Z,4.40
2022-11-25T01:08:44.241Z,4.33
2022-11-25T01:11:12.405Z,4.39
2022-11-25T01:13:38.893Z,4.16
2022-11-25T01:16:05.783Z,4.13
2022-11-25T01:18:32.361Z,4.31
2022-11-25T01:21:08.921Z,4.27
2022-11-25T01:23:35.456Z,4.15
2022-11-25T01:26:05.738Z,4.21
2022-11-25T01:28:32.206Z,4.10
2022-11-25T01:31:05.881Z,4.14
2022-11-25T01:33:32.658Z,4.11
2022-11-25T01:36:05.692Z,4.09
2022-11-25T01:38:32.254Z,4.13
2022-11-25T01:40:58.764Z,4.22
2022-11-25T01:43:25.911Z,4.24
2022-11-25T01:45:53.269Z,4.36
2022-11-25T01:48:26.324Z,4.36
2022-11-25T01:50:52.888Z,4.40
2022-11-25T01:53:20.686Z,4.45
2022-11-25T01:55:49.250Z,4.37
2022-11-25T01:58:24.215Z,4.37
2022-11-25T02:00:53.492Z,4.20
2022-11-25T02:03:34.309Z,4.15
2022-11-25T02:06:35.709Z,4.12
2022-11-25T02:09:06.034Z,4.19
2022-11-25T02:11:32.417Z,4.20
2022-11-25T02:13:59.145Z,4.30
2022-11-25T02:16:25.714Z,4.21
2022-11-25T02:18:52.275Z,4.17
2022-11-25T02:21:22.104Z,4.22
2022-11-25T02:23:55.158Z,4.26
2022-11-25T02:26:21.665Z,4.29
2022-11-25T02:28:48.787Z,4.30
2022-11-25T02:31:20.183Z,4.30
2022-11-25T02:33:46.702Z,4.30
2022-11-25T02:36:23.103Z,4.38
2022-11-25T02:39:00.510Z,4.38
2022-11-25T02:41:37.712Z,4.40
2022-11-25T02:44:04.761Z,4.56
2022-11-25T02:46:31.424Z,4.58
2022-11-25T02:49:09.055Z,4.59
2022-11-25T02:51:36.444Z,4.60
2022-11-25T02:54:02.908Z,4.64
2022-11-25T02:56:31.321Z,4.73
2022-11-25T02:58:57.890Z,4.69
2022-11-25T03:01:24.736Z,4.67
2022-11-25T03:03:51.269Z,4.64
2022-11-25T03:06:17.783Z,4.66
2022-11-25T03:08:44.236Z,4.64
2022-11-25T03:11:10.923Z,4.65
2022-11-25T03:13:37.410Z,4.57
2022-11-25T03:16:04.022Z,4.53
2022-11-25T03:18:30.521Z,4.65
2022-11-25T03:20:57.005Z,4.61
2022-11-25T03:23:23.532Z,4.67
2022-11-25T03:25:49.975Z,4.60
2022-11-25T03:28:16.429Z,4.57
2022-11-25T03:30:43.372Z,4.64
2022-11-25T03:33:09.883Z,4.60
2022-11-25T03:35:36.353Z,4.57
2022-11-25T03:38:02.804Z,4.60
2022-11-25T03:40:29.250Z,4.70
2022-11-25T03:42:55.741Z,4.77
2022-11-25T03:45:22.231Z,4.74
2022-11-25T03:47:48.705Z,4.75
2022-11-25T03:50:15.681Z,4.73
2022-11-25T03:52:42.438Z,4.72
2022-11-25T03:55:09.212Z,4.77
2022-11-25T03:57:35.738Z,4.78
2022-11-25T04:00:02.852Z,4.82
2022-11-25T04:02:29.448Z,4.83
2022-11-25T04:04:56.330Z,4.82
2022-11-25T04:07:23.007Z,4.79
2022-11-25T04:09:49.488Z,4.84
2022-11-25T04:12:34.681Z,4.82
2022-11-25T04:15:01.177Z,4.87
2022-11-25T04:17:27.661Z,4.84
2022-11-25T04:19:54.122Z,4.84
2022-11-25T04:22:20.613Z,4.92
2022-11-25T04:24:47.106Z,4.89
2022-11-25T04:27:13.565Z,4.88
2022-11-25T04:29:40.012Z,4.92
2022-11-25T04:32:06.518Z,4.92
2022-11-25T04:34:33.129Z,4.89
2022-11-25T04:36:59.811Z,4.90
2022-11-25T04:39:26.252Z,4.86
2022-11-25T04:42:12.689Z,4.83
2022-11-25T04:44:39.470Z,4.91
2022-11-25T04:47:06.001Z,4.94
2022-11-25T04:49:32.523Z,4.97
2022-11-25T04:51:58.988Z,5.01
2022-11-25T04:54:25.480Z,5.04
2022-11-25T04:56:51.956Z,5.10
2022-11-25T04:59:37.068Z,5.12
2022-11-25T05:02:03.863Z,5.15
2022-11-25T05:04:30.472Z,5.18
2022-11-25T05:06:56.930Z,5.22
2022-11-25T05:09:23.378Z,5.30
2022-11-25T05:11:49.845Z,5.29
2022-11-25T05:14:16.303Z,5.39
2022-11-25T05:16:42.864Z,5.34
2022-11-25T05:19:09.432Z,5.39
2022-11-25T05:21:36.118Z,5.35
2022-11-25T05:24:02.666Z,5.35
2022-11-25T05:26:29.150Z,5.39
2022-11-25T05:28:55.605Z,5.36
2022-11-25T05:31:22.142Z,5.37
2022-11-25T05:33:49.148Z,5.39
2022-11-25T05:36:15.602Z,5.43
2022-11-25T05:38:42.179Z,5.41
2022-11-25T05:41:10.942Z,5.46
2022-11-25T05:43:37.539Z,5.44
2022-11-25T05:46:07.431Z,5.44
2022-11-25T05:48:33.978Z,5.49
2022-11-25T05:51:01.085Z,5.50
2022-11-25T05:53:28.026Z,5.47
2022-11-25T05:55:56.384Z,5.47
2022-11-25T05:58:23.647Z,5.46
2022-11-25T06:00:50.479Z,5.47
2022-11-25T06:03:17.115Z,5.56
2022-11-25T06:05:44.210Z,5.57
2022-11-25T06:08:10.722Z,5.56
2022-11-25T06:10:40.736Z,5.59
2022-11-25T06:13:08.128Z,5.58
2022-11-25T06:15:34.728Z,5.61
2022-11-25T06:18:01.519Z,5.58
2022-11-25T06:20:27.972Z,5.60
2022-11-25T06:22:54.486Z,5.62
2022-11-25T06:25:20.932Z,5.61
2022-11-25T06:28:11.349Z,5.67
2022-11-25T06:30:33.815Z,5.69
2022-11-25T06:33:00.265Z,5.65
2022-11-25T06:35:26.707Z,5.71
2022-11-25T06:37:53.178Z,5.70
2022-11-25T06:40:19.665Z,5.69
2022-11-25T06:42:46.483Z,5.67
2022-11-25T06:45:12.968Z,5.69
2022-11-25T06:47:39.449Z,5.69
2022-11-25T06:50:06.628Z,5.59
2022-11-25T06:52:33.161Z,5.60
2022-11-25T06:54:59.609Z,5.60
2022-11-25T06:57:26.068Z,5.58
2022-11-25T06:59:52.590Z,5.57
2022-11-25T07:02:19.290Z,5.54
2022-11-25T07:04:45.772Z,5.54
2022-11-25T07:07:12.591Z,5.56
2022-11-25T07:09:39.073Z,5.60
2022-11-25T07:12:06.521Z,5.60
2022-11-25T07:14:33.027Z,5.56
2022-11-25T07:16:59.532Z,5.60
2022-11-25T07:19:26.002Z,5.55
2022-11-25T07:21:52.597Z,5.55
2022-11-25T07:24:19.056Z,5.48
2022-11-25T07:26:45.517Z,5.56
2022-11-25T07:29:36.357Z,5.60
2022-11-25T07:32:04.412Z,5.60
2022-11-25T07:34:33.717Z,5.54
2022-11-25T07:37:00.184Z,5.55
2022-11-25T07:39:26.705Z,5.51
2022-11-25T07:41:53.910Z,5.68
2022-11-25T07:44:20.476Z,5.65
2022-11-25T07:46:49.206Z,5.65
2022-11-25T07:49:20.663Z,5.73
2022-11-25T07:51:54.882Z,5.68
2022-11-25T07:54:22.092Z,5.67
2022-11-25T07:56:49.703Z,5.61
2022-11-25T07:59:17.994Z,5.70
2022-11-25T08:01:44.602Z,5.65
2022-11-25T08:04:18.105Z,5.65
2022-11-25T08:06:46.619Z,5.61
2022-11-25T08:09:14.836Z,5.72
2022-11-25T08:11:41.474Z,5.68
2022-11-25T08:14:08.462Z,5.65
2022-11-25T08:16:34.960Z,5.61
2022-11-25T08:19:02.617Z,5.65
2022-11-25T08:21:29.088Z,5.64
2022-11-25T08:23:55.903Z,5.63
2022-11-25T08:26:27.274Z,5.62
2022-11-25T08:28:54.316Z,5.63
2022-11-25T08:31:22.736Z,5.61
2022-11-25T08:33:49.409Z,5.57
2022-11-25T08:36:16.244Z,5.61
2022-11-25T08:38:42.959Z,5.64
2022-11-25T08:41:27.018Z,5.70
2022-11-25T08:43:53.512Z,5.78
2022-11-25T08:46:22.154Z,5.78
2022-11-25T08:48:48.773Z,5.78
2022-11-25T08:51:23.420Z,5.86
2022-11-25T08:53:51.218Z,5.84
2022-11-25T08:56:20.382Z,5.87
2022-11-25T08:58:50.900Z,5.86
2022-11-25T09:01:18.141Z,5.86
2022-11-25T09:03:46.765Z,5.92
2022-11-25T09:06:13.605Z,5.86
2022-11-25T09:08:40.635Z,5.87
2022-11-25T09:11:07.127Z,5.86
2022-11-25T09:13:33.926Z,5.88
2022-11-25T09:16:01.900Z,5.88
2022-11-25T09:18:30.231Z,5.96
2022-11-25T09:20:57.310Z,5.96
2022-11-25T09:23:24.136Z,5.90
2022-11-25T09:25:54.416Z,5.92
2022-11-25T09:28:21.151Z,5.94
2022-11-25T09:30:47.736Z,5.93
2022-11-25T09:33:14.301Z,5.95
2022-11-25T09:35:41.114Z,5.90
2022-11-25T09:38:07.683Z,5.95
2022-11-25T09:40:49.648Z,5.94
2022-11-25T09:44:13.564Z,5.91
2022-11-25T09:47:00.655Z,5.86
2022-11-25T09:49:45.563Z,5.90
2022-11-25T09:52:32.463Z,5.90
2022-11-25T09:55:19.717Z,5.93
2022-11-25T09:58:15.500Z,5.92
2022-11-25T10:00:43.881Z,5.92
2022-11-25T10:03:42.930Z,5.86
2022-11-25T10:06:23.866Z,5.95
2022-11-25T10:08:51.825Z,5.89
2022-11-25T10:11:22.963Z,5.96
2022-11-25T10:14:07.544Z,6.03
2022-11-25T10:16:55.703Z,6.07
2022-11-25T10:19:24.617Z,6.09
2022-11-25T10:21:51.240Z,6.17
2022-11-25T10:24:17.890Z,6.13
2022-11-25T10:26:45.858Z,6.17
2022-11-25T10:29:17.001Z,6.31
2022-11-25T10:31:43.707Z,6.23
2022-11-25T10:34:21.468Z,6.31
2022-11-25T10:36:48.005Z,6.33
2022-11-25T10:39:27.020Z,6.31
2022-11-25T10:42:21.435Z,6.28
2022-11-25T10:44:47.915Z,6.32
2022-11-25T10:47:57.121Z,6.34
2022-11-25T10:50:38.884Z,6.39
2022-11-25T10:53:08.217Z,6.39
2022-11-25T10:55:34.803Z,6.43
2022-11-25T10:58:40.026Z,6.42
2022-11-25T11:01:16.701Z,6.45
2022-11-25T11:03:44.470Z,6.37
2022-11-25T11:06:37.449Z,6.49
2022-11-25T11:09:04.229Z,6.55
2022-11-25T11:11:30.763Z,6.47
2022-11-25T11:14:13.041Z,6.60
2022-11-25T11:16:45.287Z,6.59
2022-11-25T11:19:24.333Z,6.73
2022-11-25T11:21:51.239Z,6.78
2022-11-25T11:24:35.799Z,6.75
2022-11-25T11:27:23.287Z,6.85
2022-11-25T11:30:09.439Z,6.83
2022-11-25T11:32:35.918Z,6.95
2022-11-25T11:35:14.025Z,6.96
2022-11-25T11:37:44.190Z,6.99
2022-11-25T11:40:33.693Z,7.13
2022-11-25T11:43:26.323Z,7.11
2022-11-25T11:46:12.280Z,7.20
2022-11-25T11:48:40.262Z,7.19
2022-11-25T11:51:37.430Z,7.20
2022-11-25T11:54:10.161Z,7.19
2022-11-25T11:56:50.634Z,7.14
2022-11-25T11:59:20.214Z,7.14
2022-11-25T12:02:11.585Z,7.23
2022-11-25T12:04:43.993Z,7.20
2022-11-25T12:07:13.594Z,7.24
2022-11-25T12:09:47.442Z,7.23
2022-11-25T12:12:17.212Z,7.18
2022-11-25T12:14:51.208Z,7.27
2022-11-25T12:17:28.843Z,7.32
2022-11-25T12:20:22.745Z,7.32
2022-11-25T12:22:51.093Z,7.33
2022-11-25T12:25:25.309Z,7.27
2022-11-25T12:27:59.531Z,7.28
2022-11-25T12:30:36.140Z,7.27
2022-11-25T12:33:20.171Z,7.35
2022-11-25T12:36:09.714Z,7.44
2022-11-25T12:38:56.594Z,7.36
2022-11-25T12:41:51.482Z,7.38
2022-11-25T12:44:19.687Z,7.41
2022-11-25T12:46:47.908Z,7.37
2022-11-25T12:49:21.985Z,7.36
2022-11-25T12:52:12.778Z,7.45
2022-11-25T12:55:09.737Z,7.44
2022-11-25T12:58:06.828Z,7.39
2022-11-25T13:00:52.202Z,7.36
2022-11-25T13:03:43.466Z,7.34
2022-11-25T13:06:21.897Z,7.40
2022-11-25T13:09:13.277Z,7.48
2022-11-25T13:12:13.333Z,7.64
2022-11-25T13:15:14.129Z,7.76
2022-11-25T13:17:41.854Z,7.83
2022-11-25T13:20:26.679Z,7.78
2022-11-25T13:23:05.313Z,7.73
2022-11-25T13:25:32.268Z,7.76
2022-11-25T13:27:59.847Z,7.77
2022-11-25T13:30:32.514Z,7.85
2022-11-25T13:33:18.838Z,7.79
2022-11-25T13:35:46.120Z,7.74
2022-11-25T13:38:30.890Z,7.73
2022-11-25T13:41:20.383Z,7.74
2022-11-25T13:44:18.738Z,7.68
2022-11-25T13:46:49.209Z,7.68
2022-11-25T13:49:48.821Z,7.59
2022-11-25T13:52:15.145Z,7.59
2022-11-25T13:54:54.672Z,7.51
2022-11-25T13:57:28.810Z,7.50
2022-11-25T14:00:04.566Z,7.35
2022-11-25T14:02:34.016Z,7.69
2022-11-25T14:05:22.272Z,7.57
2022-11-25T14:08:14.478Z,7.46
2022-11-25T14:10:51.607Z,7.34
2022-11-25T14:13:39.753Z,7.10
2022-11-25T14:16:43.303Z,6.94
2022-11-25T14:19:43.285Z,6.76
2022-11-25T14:22:25.096Z,6.62
2022-11-25T14:24:53.282Z,6.52
2022-11-25T14:27:22.602Z,6.32
2022-11-25T14:29:54.255Z,6.27
2022-11-25T14:32:45.233Z,6.23
2022-11-25T14:35:21.753Z,6.20
2022-11-25T14:38:03.322Z,6.19
2022-11-25T14:41:10.015Z,6.11
2022-11-25T14:43:42.185Z,6.10
2022-11-25T14:46:20.988Z,6.00
2022-11-25T14:48:53.863Z,6.00
2022-11-25T14:51:20.371Z,5.99
2022-11-25T14:53:48.843Z,5.87
2022-11-25T14:56:27.450Z,5.82
2022-11-25T14:58:54.753Z,5.81
2022-11-25T15:01:31.648Z,5.87
2022-11-25T15:04:18.463Z,6.03
2022-11-25T15:06:53.204Z,5.90
2022-11-25T15:09:30.170Z,5.78
2022-11-25T15:12:04.562Z,5.71
2022-11-25T15:14:35.947Z,5.47
2022-11-25T15:17:07.395Z,5.54
2022-11-25T15:19:34.566Z,5.66
2022-11-25T15:27:35.200Z,5.59
2022-11-25T15:30:01.933Z,5.61
2022-11-25T15:32:29.946Z,5.54
2022-11-25T15:34:57.522Z,5.39
2022-11-25T15:37:24.147Z,5.23
2022-11-25T15:39:51.416Z,5.25
2022-11-25T15:42:23.149Z,5.20
2022-11-25T15:44:56.868Z,5.32
2022-11-25T15:47:30.602Z,5.30
2022-11-25T15:50:16.571Z,5.40
2022-11-25T15:52:45.641Z,5.47
2022-11-25T15:55:38.538Z,5.27
2022-11-25T15:58:13.121Z,5.09
2022-11-25T16:00:41.742Z,5.04
2022-11-25T16:03:21.837Z,5.16
2022-11-25T16:05:57.591Z,5.30
2022-11-25T16:08:31.249Z,5.44
2022-11-25T16:11:00.189Z,5.44
2022-11-25T16:13:30.501Z,5.36
2022-11-25T16:16:16.473Z,5.42
2022-11-25T16:18:54.521Z,5.35
2022-11-25T16:21:22.763Z,5.29
2022-11-25T16:23:51.893Z,5.52
2022-11-25T16:26:24.193Z,5.50
2022-11-25T16:28:57.905Z,5.46
2022-11-25T16:31:24.646Z,5.39
2022-11-25T16:34:00.503Z,5.56
2022-11-25T16:36:26.965Z,5.66
2022-11-25T16:38:56.851Z,5.61
2022-11-25T16:41:24.818Z,5.63
2022-11-25T16:43:51.526Z,5.57
2022-11-25T16:46:19.097Z,5.63
2022-11-25T16:48:45.787Z,5.48
2022-11-25T16:51:19.850Z,5.44
2022-11-25T16:53:46.563Z,5.35
2022-11-25T16:56:28.730Z,5.47
2022-11-25T16:58:55.474Z,5.58
2022-11-25T17:01:23.597Z,5.51
2022-11-25T17:03:50.121Z,5.42
2022-11-25T17:06:22.379Z,5.53
2022-11-25T17:08:49.465Z,5.50
2022-11-25T17:11:29.054Z,5.43
2022-11-25T17:13:55.564Z,5.37
2022-11-25T17:16:23.487Z,5.67
2022-11-25T17:18:50.388Z,5.61
2022-11-25T17:21:17.213Z,5.51
2022-11-25T17:23:44.331Z,5.61
2022-11-25T17:26:22.013Z,5.70
2022-11-25T17:28:52.894Z,5.80
2022-11-25T17:31:19.530Z,6.02
2022-11-25T17:33:46.076Z,6.01
2022-11-25T17:36:12.585Z,6.01
2022-11-25T17:38:41.160Z,6.08
2022-11-25T17:41:15.434Z,6.10
2022-11-25T17:43:42.474Z,6.19
2022-11-25T17:46:13.701Z,6.23
2022-11-25T17:48:42.258Z,6.28
2022-11-25T17:51:10.090Z,6.24
2022-11-25T17:53:37.906Z,6.23
2022-11-25T17:56:24.580Z,6.37
2022-11-25T17:58:51.800Z,6.39
2022-11-25T18:01:21.154Z,6.50
2022-11-25T18:03:50.593Z,6.47
2022-11-25T18:06:17.070Z,6.49
2022-11-25T18:08:43.575Z,6.51
2022-11-25T18:11:12.207Z,6.49
2022-11-25T18:13:39.366Z,6.48
2022-11-25T18:16:06.948Z,6.48
2022-11-25T18:18:33.432Z,6.53
2022-11-25T18:21:00.314Z,6.54
2022-11-25T18:23:26.798Z,6.53
2022-11-25T18:25:53.366Z,6.67
2022-11-25T18:28:21.000Z,6.73
2022-11-25T18:30:47.968Z,6.80
2022-11-25T18:33:14.950Z,6.76
2022-11-25T18:35:42.090Z,6.81
2022-11-25T18:38:08.563Z,6.73
2022-11-25T18:40:36.212Z,6.75
2022-11-25T18:43:03.250Z,6.77
2022-11-25T18:45:36.814Z,6.75
2022-11-25T18:48:23.258Z,6.79
2022-11-25T18:50:51.293Z,6.79
2022-11-25T18:53:17.861Z,6.91
2022-11-25T18:55:44.357Z,6.81
2022-11-25T18:58:19.897Z,6.82
2022-11-25T19:00:49.714Z,6.79
2022-11-25T19:03:25.807Z,6.90
2022-11-25T19:05:54.176Z,6.86
2022-11-25T19:08:20.867Z,7.16
2022-11-25T19:10:47.441Z,7.14
2022-11-25T19:13:19.316Z,7.24
2022-11-25T19:15:45.890Z,7.27
2022-11-25T19:18:14.834Z,7.05
2022-11-25T19:20:41.530Z,7.07
2022-11-25T19:23:21.197Z,7.12
2022-11-25T19:25:47.662Z,7.20
2022-11-25T19:28:14.152Z,7.20
2022-11-25T19:30:40.667Z,7.03
2022-11-25T19:33:09.123Z,7.05
2022-11-25T19:35:36.754Z,7.07
2022-11-25T19:38:16.410Z,7.18
2022-11-25T19:40:42.937Z,7.05
2022-11-25T19:43:09.413Z,6.89
2022-11-25T19:45:35.972Z,6.91
2022-11-25T19:48:07.418Z,6.88
2022-11-25T19:50:34.765Z,6.84
2022-11-25T19:53:01.224Z,6.80
2022-11-25T19:55:32.219Z,6.72
2022-11-25T19:57:58.798Z,6.66
2022-11-25T20:00:25.366Z,6.56
2022-11-25T20:02:53.390Z,6.67
2022-11-25T20:05:24.358Z,6.73
2022-11-25T20:07:50.940Z,6.80
2022-11-25T20:10:22.758Z,6.82
2022-11-25T20:12:49.362Z,6.93
2022-11-25T20:15:15.868Z,6.92
2022-11-25T20:17:53.559Z,6.99
2022-11-25T20:20:27.388Z,6.99
2022-11-25T20:22:54.847Z,7.22
2022-11-25T20:25:21.464Z,7.08
2022-11-25T20:27:47.937Z,7.05
2022-11-25T20:30:19.080Z,7.14
2022-11-25T20:32:45.705Z,7.17
2022-11-25T20:35:12.175Z,7.39
2022-11-25T20:37:59.420Z,7.28
2022-11-25T20:40:40.059Z,7.21
2022-11-25T20:43:28.251Z,7.30
2022-11-25T20:45:54.838Z,7.35
2022-11-25T20:48:21.618Z,7.33
2022-11-25T20:50:48.599Z,7.26
2022-11-25T20:53:16.426Z,7.33
2022-11-25T20:55:43.071Z,7.35
2022-11-25T20:58:26.437Z,7.52
2022-11-25T21:00:57.259Z,7.48
2022-11-25T21:03:24.801Z,7.59
2022-11-25T21:05:51.328Z,7.45
2022-11-25T21:08:22.516Z,7.56
2022-11-25T21:10:49.854Z,7.47
2022-11-25T21:13:18.017Z,7.47
2022-11-25T21:15:44.660Z,7.51
2022-11-25T21:18:11.237Z,7.49
2022-11-25T21:20:38.293Z,7.46
2022-11-25T21:23:07.545Z,7.44
2022-11-25T21:25:34.601Z,7.40
2022-11-25T21:28:01.235Z,7.59
2022-11-25T21:30:30.816Z,7.53
2022-11-25T21:32:59.518Z,7.58
2022-11-25T21:35:33.617Z,7.54
2022-11-25T21:38:11.958Z,7.57
2022-11-25T21:40:48.675Z,7.58
2022-11-25T21:43:21.616Z,7.56
2022-11-25T21:45:49.201Z,7.61
2022-11-25T21:48:23.390Z,7.60
2022-11-25T21:50:49.979Z,7.61
2022-11-25T21:53:16.549Z,7.56
2022-11-25T21:55:43.274Z,7.62
2022-11-25T21:58:19.709Z,7.69
2022-11-25T22:00:50.739Z,7.62
2022-11-25T22:03:18.123Z,7.57
2022-11-25T22:05:45.032Z,7.59
2022-11-25T22:08:11.542Z,7.59
2022-11-25T22:10:38.599Z,7.61
2022-11-25T22:13:06.257Z,7.57
2022-11-25T22:15:33.447Z,7.55
2022-11-25T22:18:00.166Z,7.61
2022-11-25T22:20:27.918Z,7.57
2022-11-25T22:22:54.460Z,7.52
2022-11-25T22:25:21.330Z,7.49
2022-11-25T22:27:47.805Z,7.61
2022-11-25T22:30:18.233Z,7.55
2022-11-25T22:32:45.912Z,7.52
2022-11-25T22:35:16.847Z,7.50
2022-11-25T22:37:43.602Z,7.55
2022-11-25T22:40:10.627Z,7.49
2022-11-25T22:42:37.128Z,7.49
2022-11-25T22:45:05.093Z,7.50
2022-11-25T22:47:41.148Z,7.47
2022-11-25T22:50:26.589Z,7.53
2022-11-25T22:52:53.392Z,7.47
2022-11-25T22:55:30.622Z,7.43
2022-11-25T22:57:58.516Z,7.43
2022-11-25T23:00:30.786Z,7.33
2022-11-25T23:02:58.179Z,7.27
2022-11-25T23:05:32.144Z,7.26
2022-11-25T23:07:59.987Z,7.36
2022-11-25T23:10:29.171Z,7.38
2022-11-25T23:12:55.683Z,7.40
2022-11-25T23:15:22.690Z,7.28
2022-11-25T23:17:59.541Z,7.38
2022-11-25T23:20:31.161Z,7.33
2022-11-25T23:22:58.937Z,7.41
2022-11-25T23:25:25.388Z,7.32
2022-11-25T23:27:51.996Z,7.40
2022-11-25T23:30:24.514Z,7.42
2022-11-25T23:32:52.130Z,7.36
2022-11-25T23:35:33.253Z,7.38
2022-11-25T23:37:59.778Z,7.28
2022-11-25T23:40:26.348Z,7.25
2022-11-25T23:42:55.357Z,7.19
2022-11-25T23:45:23.213Z,7.27
2022-11-25T23:47:50.955Z,7.30
2022-11-25T23:50:29.619Z,7.27
2022-11-25T23:53:00.979Z,7.31
2022-11-25T23:55:30.369Z,7.25
2022-11-25T23:57:56.842Z,7.22
